• Join FlightAware (Why Join?)
  • Login
  • US Flag 
Rudolph Flight #1: Scheduled 
10:03PM EST


 

Airport Tracker/Info


-or-


 

Live Flight TrackerFlight Track Log ✈ GLA182 ✈ 07-May-2013 ✈ KPIR - KDEN

Flight Track Log - Related Links

Times and Time Zones

All times are in EDT time to prevent confusion due to time zone crossing. See the GLA182 flight status page for this flight to view local times or setup timezone preferences in your user account.

Time Position Orientation Groundspeed Altitude Reporting Facility
EDT Latitude Longitude Course Direction KTS MPH feet Rate Location/Type
11:09AM 44.3450 -100.3289 247° West 157 181 5,000  Level Minneapolis Center
11:10AM 44.3422 -100.3953 267° West 164 189 7,000 2,040 Climbing Minneapolis Center
11:11AM 44.3083 -100.4572 233° Southwest 167 192 9,200 1,980 Climbing Minneapolis Center
11:12AM 44.0358 -100.6522 217° Southwest  Level Estimated
11:12AM 44.2703 -100.4981 218° Southwest 172 198 11,100  Level Minneapolis Center
11:13AM 43.9778 -100.7128 217° Southwest  Level Estimated
11:13AM 44.2319 -100.5414 219° Southwest 173 199 12,800  Level Minneapolis Center
11:14AM 44.1911 -100.5828 216° Southwest 177 204 14,400 1,440 Climbing Minneapolis Center
11:15AM 44.1503 -100.6308 220° Southwest 183 211 15,800 1,260 Climbing Minneapolis Center
11:16AM 44.1108 -100.6825 223° Southwest 189 217 17,100 1,500 Climbing Minneapolis Center
11:17AM 44.0650 -100.7486 226° Southwest 193 222 18,900 1,500 Climbing Minneapolis Center
11:18AM 44.0253 -100.8050 226° Southwest 198 228 20,300 1,260 Climbing Minneapolis Center
11:19AM 43.9839 -100.8614 224° Southwest 203 234 21,600 1,080 Climbing Minneapolis Center
11:20AM 43.9397 -100.9186 223° Southwest 210 242 22,600 1,020 Climbing Minneapolis Center
11:21AM 43.8950 -100.9744 222° Southwest 214 246 23,800 720 Climbing Minneapolis Center
11:22AM 43.8469 -101.0322 221° Southwest 220 253 24,100 120 Climbing Minneapolis Center
11:23AM 43.7928 -101.0978 221° Southwest 238 274 24,100  Level Minneapolis Center
11:24AM 43.7244 -101.1817 222° Southwest 260 299 24,100  Level Minneapolis Center
11:25AM 43.6672 -101.2553 223° Southwest 271 312 24,100  Level Minneapolis Center
11:26AM 43.6100 -101.3264 222° Southwest 276 318 24,100  Level Minneapolis Center
11:28AM 43.5519 -101.3967 221° Southwest 277 319 24,100  Level Minneapolis Center
11:29AM 43.4850 -101.4867 224° Southwest 279 321 24,100  Level Denver Center
11:30AM 43.4283 -101.5594 223° Southwest 279 321 24,100  Level Denver Center
11:31AM 43.3703 -101.6333 223° Southwest 282 325 24,100  Level Denver Center
11:32AM 43.3147 -101.7083 224° Southwest 280 322 24,100  Level Denver Center
11:33AM 43.2544 -101.7875 224° Southwest 283 326 24,100  Level Denver Center
11:34AM 43.1939 -101.8728 226° Southwest 280 322 24,100  Level Denver Center
11:35AM 43.1417 -101.9450 225° Southwest 279 321 24,100  Level Denver Center
11:36AM 43.0792 -102.0286 224° Southwest 280 322 24,100  Level Denver Center
11:37AM 43.0253 -102.0989 224° Southwest 280 322 24,100  Level Denver Center
11:38AM 42.9642 -102.1833 225° Southwest 278 320 24,100  Level Denver Center
11:39AM 42.9067 -102.2494 220° Southwest 280 322 24,100  Level Denver Center
11:40AM 42.8403 -102.3258 220° Southwest 280 322 24,100  Level Denver Center
11:41AM 42.7825 -102.3903 219° Southwest 280 322 24,100  Level Denver Center
11:42AM 42.7167 -102.4672 221° Southwest 279 321 24,100  Level Denver Center
11:43AM 42.6608 -102.5342 221° Southwest 279 321 24,100  Level Denver Center
11:44AM 42.6047 -102.6008 221° Southwest 279 321 24,100  Level Denver Center
11:45AM 42.5400 -102.6786 222° Southwest 279 321 24,100  Level Denver Center
11:46AM 42.4867 -102.7475 224° Southwest 278 320 24,100  Level Denver Center
11:47AM 42.4256 -102.8289 225° Southwest 277 319 24,100  Level Denver Center
11:48AM 42.3725 -102.8983 224° Southwest 277 319 24,100  Level Denver Center
11:49AM 42.3094 -102.9800 224° Southwest 278 320 24,100  Level Denver Center
11:50AM 42.2567 -103.0492 224° Southwest 278 320 24,100  Level Denver Center
11:51AM 42.1964 -103.1303 225° Southwest 276 318 24,100  Level Denver Center
11:52AM 42.1442 -103.1986 224° Southwest 274 315 24,100  Level Denver Center
11:53AM 42.0806 -103.2744 222° Southwest 273 314 24,100  Level Denver Center
11:55AM 42.0231 -103.3353 218° Southwest 273 314 24,100  Level Denver Center
11:56AM 41.9678 -103.3978 220° Southwest 273 314 24,100  Level Denver Center
11:57AM 41.9003 -103.4686 218° Southwest 273 314 24,100  Level Denver Center
11:58AM 41.8317 -103.4989 198° South 281 323 24,100  Level Denver Center
11:59AM 41.7428 -103.5036 182° South 284 327 24,100  Level Denver Center
12:00PM 41.6681 -103.5150 186° South 282 325 24,100  Level Denver Center
12:01PM 41.5806 -103.5308 188° South 283 326 24,100  Level Denver Center
12:02PM 41.5067 -103.5433 187° South 280 322 24,100  Level Denver Center
12:03PM 41.4189 -103.5564 186° South 282 325 24,100  Level Denver Center
12:04PM 41.3444 -103.5683 187° South 282 325 24,100 -840 Level Denver Center
12:05PM 41.2575 -103.5842 188° South 282 325 22,400 -1,560 Descending Denver Center
12:06PM 41.1839 -103.6000 189° South 280 322 20,900 -1,500 Descending Denver Center
12:07PM 41.0972 -103.6142 187° South 280 322 19,400 -1,380 Descending Denver Center
12:08PM 41.0206 -103.6250 186° South 287 330 18,100 -1,380 Descending Denver Center
12:09PM 40.9303 -103.6361 185° South 288 331 16,600 -1,020 Descending Denver Center
12:10PM 40.8500 -103.6436 184° South 285 328 16,100 -300 Descending Denver Center
12:11PM 40.7697 -103.6517 184° South 286 329 16,100  Level Denver Center
12:12PM 40.6881 -103.6611 185° South 290 334 16,200  Climbing Denver Center
12:13PM 40.6067 -103.6722 186° South 292 336 16,200 -480 Level Denver Center
12:14PM 40.5431 -103.7369 218° Southwest 294 338 15,300 -1,080 Descending Denver Center
12:15PM 40.4939 -103.8219 233° Southwest 291 335 14,000 -1,080 Descending Denver Center
12:16PM 40.4433 -103.8989 229° Southwest 298 343 13,100 -420 Descending Denver Center
12:17PM 40.3714 -103.9903 224° Southwest 294 338 13,200  Climbing Denver Center
12:18PM 40.3117 -104.0592 221° Southwest 290 334 13,200  Level Denver Center
12:19PM 40.2486 -104.1342 222° Southwest 289 333 13,200  Level Denver Center
12:20PM 40.1886 -104.2036 221° Southwest 284 327 13,200  Level Denver Center
12:21PM 40.1236 -104.2811 222° Southwest 292 336 13,200  Level Denver Center
12:22PM 40.0656 -104.3539 224° Southwest 291 335 13,200  Level Denver Center
12:23PM 40.0078 -104.4269 224° Southwest 290 334 13,200 -480 Level Denver Center
12:25PM 39.9392 -104.4831 212° Southwest 280 322 12,300 -960 Descending Denver Center
12:26PM 39.8658 -104.4806 179° South 264 304 11,300 -780 Descending Denver Center
12:27PM 39.7878 -104.4828 181° South 259 298 10,800 -840 Descending Denver Center
12:28PM 39.7167 -104.4878 183° South 252 290 9,600 -1,140 Descending Denver Center
12:29PM 39.6550 -104.5122 197° South 240 276 8,500 -780 Descending Denver Center
12:30PM 39.6578 -104.5911 273° West 206 237 8,100 -420 Descending Denver Center
12:31PM 39.7092 -104.6211 336° Northwest 204 235 7,700 -780 Descending Denver Center
12:32PM 39.7694 -104.6411 346° North 211 243 6,500 -1,020 Descending Denver Center
12:33PM 39.8208 -104.6422 359° North 185 213 5,700 -540 Descending Denver Center
12:34PM 39.8556 -104.6428 359° North 156 180 5,400 -300 Descending Denver Center
12:36PM 39.8500 -104.6667 229° Southwest  Level FlightAware Approximate